Time;durP1;ratioP1;P1;durP2;ratioP2;P2;SDS_P1;SDS_P2;PMS_P1;PMS_P2;Temp;Humidity;BMP_temperature;BMP_pressure;BME280_temperature;BME280_humidity;BME280_pressure;Samples;Min_cycle;Max_cycle;Signal;HPM_P1;HPM_P2
2022/07/04 00:01:44;;;;;;;6.65;3.03;;;;;;;14.58;69.93;101894.34;5043089;28;20050;-77
2022/07/04 00:04:11;;;;;;;5.68;3.13;;;;;;;14.54;70.06;101899.81;5050195;28;20049;-76
2022/07/04 00:06:38;;;;;;;6.47;2.78;;;;;;;14.49;69.91;101894.63;5048817;28;20152;-76
2022/07/04 00:09:06;;;;;;;5.97;3.13;;;;;;;14.44;69.83;101897.44;5051710;28;20164;-77
2022/07/04 00:11:33;;;;;;;5.63;3.10;;;;;;;14.42;70.00;101901.03;5051295;28;20076;-76
2022/07/04 00:14:01;;;;;;;4.50;3.03;;;;;;;14.40;70.00;101902.84;5052326;28;20045;-75
2022/07/04 00:16:28;;;;;;;5.50;3.08;;;;;;;14.34;70.36;101901.28;5052474;28;20087;-78
2022/07/04 00:18:56;;;;;;;5.03;3.03;;;;;;;14.30;70.80;101904.91;5051937;28;20037;-75
2022/07/04 00:21:23;;;;;;;9.52;2.88;;;;;;;14.26;70.56;101905.91;5051745;28;20068;-74
2022/07/04 00:23:50;;;;;;;3.95;3.10;;;;;;;14.22;70.76;101904.28;5062672;28;20049;-75
2022/07/04 00:26:17;;;;;;;4.28;2.65;;;;;;;14.16;70.58;101905.31;5053554;28;20103;-76
2022/07/04 00:28:44;;;;;;;5.90;3.58;;;;;;;14.12;70.59;101896.59;5052102;28;20129;-77
2022/07/04 00:31:12;;;;;;;4.97;3.50;;;;;;;14.09;70.84;101895.81;5053009;28;20072;-76
2022/07/04 00:33:45;;;;;;;5.60;3.40;;;;;;;14.05;71.30;101896.78;5050938;28;20076;-77
2022/07/04 00:36:12;;;;;;;4.28;3.03;;;;;;;14.04;71.06;101903.84;5053527;28;20041;-78
2022/07/04 00:38:40;;;;;;;5.38;3.42;;;;;;;14.02;71.14;101902.16;5052599;28;20065;-77
2022/07/04 00:41:07;;;;;;;4.47;3.47;;;;;;;13.98;71.35;101904.94;5051116;28;20069;-75
2022/07/04 00:43:35;;;;;;;5.95;3.53;;;;;;;13.97;71.33;101905.84;5050889;28;20049;-78
2022/07/04 00:46:22;;;;;;;4.45;3.30;;;;;;;13.94;71.98;101894.41;5052539;28;20051;-76
2022/07/04 00:48:49;;;;;;;7.40;3.78;;;;;;;13.92;72.08;101905.06;5066012;28;20096;-77
2022/07/04 00:51:17;;;;;;;5.95;3.72;;;;;;;13.90;72.11;101898.09;5053464;28;20552;-77
2022/07/04 00:53:45;;;;;;;6.90;3.75;;;;;;;13.86;72.54;101899.94;5056940;28;20041;-78
2022/07/04 00:56:13;;;;;;;8.15;3.58;;;;;;;13.84;72.26;101903.56;5059161;28;20064;-77
2022/07/04 00:58:40;;;;;;;5.03;3.63;;;;;;;13.78;72.28;101902.81;5052176;28;20997;-75
2022/07/04 01:01:07;;;;;;;6.18;3.90;;;;;;;13.74;72.05;101902.94;5049766;28;20136;-76
2022/07/04 01:03:34;;;;;;;6.55;3.65;;;;;;;13.71;72.03;101913.59;5051284;28;20049;-77
2022/07/04 01:06:10;;;;;;;8.27;3.53;;;;;;;13.65;72.03;101906.69;5052530;28;20055;-81
2022/07/04 01:08:40;;;;;;;6.20;3.95;;;;;;;13.62;72.37;101904.13;5049201;28;20096;-80
2022/07/04 01:11:09;;;;;;;7.57;4.10;;;;;;;13.58;72.54;101908.59;5052243;28;20050;-77
2022/07/04 01:13:37;;;;;;;5.28;4.15;;;;;;;13.55;72.67;101906.06;5051499;28;20112;-77
2022/07/04 01:16:04;;;;;;;9.70;4.13;;;;;;;13.53;72.64;101905.22;5052037;28;20038;-79
2022/07/04 01:18:31;;;;;;;9.45;4.00;;;;;;;13.52;73.04;101906.13;5050824;28;20045;-79
2022/07/04 01:20:59;;;;;;;6.63;4.63;;;;;;;13.49;73.48;101896.50;5050553;28;20076;-78
2022/07/04 01:23:26;;;;;;;8.05;4.10;;;;;;;13.47;73.20;101894.81;5051567;28;20303;-79
2022/07/04 01:25:54;;;;;;;10.45;4.47;;;;;;;13.46;73.72;101890.41;5046170;28;20046;-79
2022/07/04 01:28:22;;;;;;;8.32;4.82;;;;;;;13.44;74.31;101894.88;5048896;28;20038;-80
2022/07/04 01:30:51;;;;;;;8.32;4.50;;;;;;;13.41;74.34;101892.28;5049616;28;20050;-81
2022/07/04 01:33:19;;;;;;;8.77;4.93;;;;;;;13.37;74.87;101891.47;5051580;28;20133;-78
2022/07/04 01:35:47;;;;;;;8.05;4.55;;;;;;;13.34;74.70;101876.53;5049563;28;20033;-79
2022/07/04 01:38:15;;;;;;;6.97;5.18;;;;;;;13.34;74.40;101880.94;5051769;28;20042;-78
2022/07/04 01:40:42;;;;;;;9.77;4.63;;;;;;;13.30;74.58;101874.00;5049439;28;20077;-78
2022/07/04 01:43:09;;;;;;;9.20;5.10;;;;;;;13.28;74.68;101871.38;5049544;28;20056;-79
2022/07/04 01:45:37;;;;;;;6.85;4.90;;;;;;;13.27;74.84;101876.72;5050010;28;20037;-79
2022/07/04 01:48:12;;;;;;;7.63;5.18;;;;;;;13.25;75.33;101871.47;5049987;28;20743;-80
2022/07/04 01:50:39;;;;;;;6.80;5.03;;;;;;;13.25;75.57;101867.94;5048606;28;20492;-79
2022/07/04 01:53:07;;;;;;;8.70;5.25;;;;;;;13.24;75.38;101871.50;5050613;28;20488;-79
2022/07/04 01:55:34;;;;;;;9.60;5.68;;;;;;;13.22;75.35;101868.91;5052949;28;20099;-78
2022/07/04 01:58:01;;;;;;;9.35;5.47;;;;;;;13.19;75.13;101867.19;5050528;28;20038;-79
2022/07/04 02:03:15;;;;;;;8.80;5.50;;;;;;;13.17;75.14;101863.72;5050924;28;20497;-77
2022/07/04 02:05:43;;;;;;;7.80;5.20;;;;;;;13.16;75.24;101869.91;5052589;28;20103;-77
2022/07/04 02:08:11;;;;;;;8.10;5.70;;;;;;;13.16;75.13;101863.75;5050569;28;20080;-76
2022/07/04 02:10:38;;;;;;;9.02;5.68;;;;;;;13.13;75.26;101861.19;5057783;28;20102;-76
2022/07/04 02:13:05;;;;;;;8.48;6.10;;;;;;;13.11;75.35;101863.00;5062000;28;20140;-77
2022/07/04 02:15:36;;;;;;;8.20;5.75;;;;;;;13.09;75.38;101863.03;5059545;28;20092;-76
2022/07/04 02:18:07;;;;;;;7.57;4.85;;;;;;;13.05;75.75;101859.59;5050088;28;20048;-77
2022/07/04 02:20:37;;;;;;;9.85;5.00;;;;;;;13.00;75.68;101850.88;5050552;28;20047;-78
2022/07/04 02:23:05;;;;;;;9.60;5.13;;;;;;;12.95;75.49;101849.25;5051276;28;20048;-76
2022/07/04 02:25:33;;;;;;;5.85;4.85;;;;;;;12.89;75.51;101850.28;5050056;28;20493;-77
2022/07/04 02:28:00;;;;;;;10.30;4.95;;;;;;;12.81;75.22;101845.19;5049875;28;20044;-77
2022/07/04 02:30:27;;;;;;;6.97;4.75;;;;;;;12.75;75.29;101853.25;5049323;28;20045;-76
2022/07/04 02:32:55;;;;;;;6.38;4.93;;;;;;;12.70;75.37;101855.16;5051334;28;20092;-76
2022/07/04 02:35:22;;;;;;;7.25;4.97;;;;;;;12.66;75.55;101853.47;5050419;28;20091;-76
2022/07/04 02:37:49;;;;;;;7.10;5.13;;;;;;;12.60;75.82;101857.13;5049521;28;20121;-76
2022/07/04 02:40:17;;;;;;;7.97;4.45;;;;;;;12.55;75.47;101866.94;5049009;28;20121;-74
2022/07/04 02:42:45;;;;;;;7.93;4.88;;;;;;;12.50;75.38;101864.41;5044020;28;20044;-76
2022/07/04 02:45:12;;;;;;;6.75;5.15;;;;;;;12.47;75.58;101874.16;5050264;28;20505;-76
2022/07/04 02:47:39;;;;;;;6.78;4.85;;;;;;;12.47;75.56;101872.41;5050078;28;20065;-76
2022/07/04 02:50:07;;;;;;;7.50;4.72;;;;;;;12.46;75.57;101869.81;5050599;28;20925;-76
2022/07/04 02:52:34;;;;;;;6.35;4.72;;;;;;;12.45;75.78;101871.56;5051518;28;20038;-77
2022/07/04 02:55:02;;;;;;;7.05;4.85;;;;;;;12.43;75.96;101871.59;5049379;28;20524;-77
2022/07/04 02:57:29;;;;;;;7.38;5.00;;;;;;;12.43;75.77;101874.25;5049608;28;20087;-78
2022/07/04 02:59:56;;;;;;;7.35;4.50;;;;;;;12.42;75.87;101863.69;5050399;28;20528;-77
2022/07/04 03:02:23;;;;;;;6.40;4.22;;;;;;;12.41;76.12;101872.53;5049890;28;20049;-78
2022/07/04 03:04:50;;;;;;;8.20;3.78;;;;;;;12.37;75.62;101878.78;5050541;28;20894;-78
2022/07/04 03:07:18;;;;;;;6.75;4.47;;;;;;;12.32;75.78;101878.88;5050217;28;20133;-77
2022/07/04 03:09:47;;;;;;;6.65;4.25;;;;;;;12.29;75.78;101876.28;5050874;28;20042;-78
2022/07/04 03:12:15;;;;;;;4.43;4.03;;;;;;;12.26;75.61;101879.00;5050953;28;20505;-80
2022/07/04 03:14:43;;;;;;;9.13;4.35;;;;;;;12.24;75.65;101870.25;5050853;28;20569;-79
2022/07/04 03:17:10;;;;;;;6.57;4.10;;;;;;;12.22;75.74;101869.41;5049639;28;20088;-79
2022/07/04 03:19:37;;;;;;;9.85;4.47;;;;;;;12.19;75.88;101880.03;5050211;28;20076;-78
2022/07/04 03:22:05;;;;;;;5.80;4.10;;;;;;;12.15;75.56;101878.38;5049070;28;20043;-77
2022/07/04 03:24:32;;;;;;;7.00;4.15;;;;;;;12.12;75.95;101881.94;5052599;28;20543;-78
2022/07/04 03:26:59;;;;;;;6.28;4.57;;;;;;;12.09;76.20;101882.88;5054607;28;20042;-77
2022/07/04 03:29:26;;;;;;;6.70;4.90;;;;;;;12.08;76.33;101891.69;5050551;28;20088;-77
2022/07/04 03:31:57;;;;;;;5.75;4.97;;;;;;;12.09;76.94;101896.09;5053535;28;20045;-81
2022/07/04 03:34:24;;;;;;;8.40;5.10;;;;;;;12.10;77.05;101897.81;5054550;28;20096;-77
2022/07/04 03:36:52;;;;;;;8.95;5.70;;;;;;;12.14;77.69;101908.34;5054887;28;20107;-76
2022/07/04 03:39:19;;;;;;;8.05;5.53;;;;;;;12.16;77.74;101902.13;5052322;28;20037;-77
2022/07/04 03:41:46;;;;;;;7.35;5.28;;;;;;;12.20;77.55;101906.47;5045954;28;20104;-77
2022/07/04 03:44:14;;;;;;;8.50;6.07;;;;;;;12.24;77.74;101901.97;5053785;28;20038;-79
2022/07/04 03:46:41;;;;;;;9.82;6.28;;;;;;;12.46;77.09;101904.19;5053076;28;20069;-79
2022/07/04 03:49:09;;;;;;;7.07;5.15;;;;;;;12.72;76.48;101904.47;5054931;28;20037;-79
2022/07/04 03:51:36;;;;;;;8.88;5.55;;;;;;;12.84;76.06;101913.03;5053797;28;20107;-79
2022/07/04 03:54:04;;;;;;;10.95;5.80;;;;;;;12.88;75.96;101919.97;5052677;28;20048;-76
2022/07/04 03:56:32;;;;;;;9.63;5.55;;;;;;;12.83;75.77;101913.94;5053683;28;20500;-77
2022/07/04 03:58:59;;;;;;;10.73;5.70;;;;;;;13.00;75.77;101918.84;5052417;28;20570;-76
2022/07/04 04:01:27;;;;;;;6.78;5.50;;;;;;;13.18;75.14;101929.00;5052493;28;20087;-77
2022/07/04 04:06:40;;;;;;;7.30;5.28;;;;;;;13.24;74.77;101938.56;5050845;28;20184;-76
2022/07/04 04:09:12;;;;;;;8.07;5.45;;;;;;;13.15;74.95;101933.50;5051751;28;20049;-77
2022/07/04 04:11:39;;;;;;;7.13;4.90;;;;;;;13.10;75.27;101936.25;5044557;28;20131;-76
2022/07/04 04:14:06;;;;;;;9.30;5.22;;;;;;;13.08;75.79;101939.81;5053193;28;20080;-77
2022/07/04 04:16:38;;;;;;;6.47;5.10;;;;;;;13.07;75.85;101940.75;5054892;28;20105;-77
2022/07/04 04:19:05;;;;;;;6.22;5.20;;;;;;;13.03;76.38;101937.28;5052935;28;20060;-76
2022/07/04 04:21:32;;;;;;;8.23;5.35;;;;;;;13.00;76.53;101946.19;5051400;28;20053;-77
2022/07/04 04:23:59;;;;;;;7.82;5.72;;;;;;;13.13;76.13;101949.41;5055428;28;20074;-77
2022/07/04 04:26:27;;;;;;;6.82;5.50;;;;;;;13.23;75.72;101949.22;5054335;28;20121;-78
2022/07/04 04:28:54;;;;;;;6.53;5.78;;;;;;;13.18;76.02;101952.84;5047028;28;20042;-78
2022/07/04 04:31:26;;;;;;;9.43;6.00;;;;;;;13.18;75.92;101952.84;5048828;28;20053;-75
2022/07/04 04:33:53;;;;;;;10.10;5.85;;;;;;;13.18;75.78;101952.84;5052242;28;20039;-77
2022/07/04 04:36:20;;;;;;;11.82;6.82;;;;;;;13.22;75.78;101961.56;5052630;28;20808;-78
2022/07/04 04:38:47;;;;;;;11.25;6.13;;;;;;;13.24;75.69;101965.06;5053298;28;20099;-76
2022/07/04 04:41:16;;;;;;;8.32;6.47;;;;;;;13.32;75.83;101962.22;5056501;28;20053;-76
2022/07/04 04:43:46;;;;;;;8.20;6.28;;;;;;;13.41;75.71;101966.44;5051937;28;20034;-76
2022/07/04 04:46:19;;;;;;;12.10;5.93;;;;;;;13.46;75.62;101965.44;5051331;28;20056;-80
2022/07/04 04:48:46;;;;;;;10.13;5.90;;;;;;;13.57;75.42;101978.44;5051834;28;20037;-81
2022/07/04 04:51:13;;;;;;;24.42;7.57;;;;;;;13.69;75.18;101968.41;5052912;28;20044;-81
2022/07/04 04:53:41;;;;;;;14.18;5.00;;;;;;;13.82;75.04;101975.16;5053196;28;20076;-80
2022/07/04 04:56:08;;;;;;;8.45;5.82;;;;;;;14.02;74.93;101971.09;5053920;28;20603;-81
2022/07/04 04:58:35;;;;;;;10.43;5.97;;;;;;;14.13;74.20;101959.31;5050502;28;20041;-80
2022/07/04 05:01:03;;;;;;;13.85;5.93;;;;;;;14.22;74.33;101960.81;5051415;28;20033;-80
2022/07/04 05:03:50;;;;;;;9.63;5.28;;;;;;;14.34;73.53;101959.63;5034885;28;20673;-80
2022/07/04 05:06:18;;;;;;;10.75;6.20;;;;;;;14.38;72.87;101948.00;5051642;28;20034;-80
2022/07/04 05:08:46;;;;;;;6.13;5.53;;;;;;;14.45;73.00;101948.69;5052340;28;20044;-80
2022/07/04 05:11:13;;;;;;;13.07;5.88;;;;;;;14.54;73.10;101944.91;5052866;28;20131;-81
2022/07/04 05:13:41;;;;;;;12.88;5.93;;;;;;;14.67;72.86;101933.03;5052246;28;20045;-81
2022/07/04 05:16:08;;;;;;;9.57;4.68;;;;;;;15.02;71.87;101944.34;5050576;28;20148;-83
2022/07/04 05:18:35;;;;;;;8.82;5.95;;;;;;;15.19;71.53;101941.16;5052982;28;20042;-80
2022/07/04 05:21:02;;;;;;;9.80;5.28;;;;;;;15.64;70.77;101938.81;5052670;28;20476;-81
2022/07/04 05:23:30;;;;;;;10.52;4.75;;;;;;;17.11;67.21;101933.44;5050214;28;20121;-81
2022/07/04 05:25:57;;;;;;;12.20;4.90;;;;;;;17.62;65.74;101944.66;5052061;28;20117;-80
2022/07/04 05:28:24;;;;;;;11.85;4.72;;;;;;;18.07;64.14;101944.53;5053027;28;20033;-80
2022/07/04 05:30:52;;;;;;;11.30;4.90;;;;;;;20.03;59.29;101944.94;5052193;28;20245;-81
2022/07/04 05:33:19;;;;;;;9.68;4.05;;;;;;;22.25;53.58;101933.19;5052260;28;20045;-81
2022/07/04 05:35:47;;;;;;;6.22;3.13;;;;;;;24.06;48.07;101920.47;5051483;28;20055;-81
2022/07/04 05:38:14;;;;;;;18.30;3.63;;;;;;;25.54;44.62;101929.47;5046510;28;20133;-81
2022/07/04 05:40:41;;;;;;;12.23;3.60;;;;;;;26.72;42.29;101921.03;5050400;28;20033;-80
2022/07/04 05:43:10;;;;;;;11.63;3.03;;;;;;;27.79;39.44;101922.09;5038199;28;20109;-79
2022/07/04 05:45:38;;;;;;;8.65;3.10;;;;;;;28.74;37.39;101923.66;5032912;28;20037;-80
2022/07/04 05:48:05;;;;;;;4.43;2.80;;;;;;;29.55;35.32;101933.41;5038428;28;20096;-78
2022/07/04 05:50:33;;;;;;;19.17;3.63;;;;;;;30.10;34.11;101933.69;5049882;28;20469;-79
2022/07/04 05:53:00;;;;;;;10.50;2.92;;;;;;;30.54;33.44;101925.78;5035700;28;20053;-79
2022/07/04 05:55:27;;;;;;;5.60;2.50;;;;;;;31.01;32.79;101922.03;5044614;28;20042;-81
2022/07/04 05:57:55;;;;;;;6.72;2.80;;;;;;;31.45;31.35;101927.53;5042433;28;20041;-80
2022/07/04 06:00:23;;;;;;;3.42;2.03;;;;;;;31.91;30.70;101934.69;5027566;28;20053;-78
2022/07/04 06:02:50;;;;;;;5.97;2.22;;;;;;;32.27;29.76;101931.81;5044141;28;20113;-81
2022/07/04 06:05:19;;;;;;;4.60;2.30;;;;;;;32.61;28.98;101938.25;5048041;28;20044;-80
2022/07/04 06:07:48;;;;;;;5.03;2.25;;;;;;;32.75;28.10;101936.75;5041916;28;20129;-80
2022/07/04 06:10:15;;;;;;;10.73;1.95;;;;;;;32.74;28.35;101935.03;5048570;28;20053;-80
2022/07/04 06:12:42;;;;;;;2.67;1.75;;;;;;;32.89;28.32;101938.84;5051780;28;20116;-80
2022/07/04 06:15:11;;;;;;;8.65;1.95;;;;;;;33.10;28.47;101934.75;5052817;28;20037;-79
2022/07/04 06:17:38;;;;;;;5.78;2.10;;;;;;;33.18;27.49;101940.22;5053113;28;20069;-77
2022/07/04 06:20:06;;;;;;;9.98;2.55;;;;;;;33.06;26.95;101927.94;5053795;28;20399;-77
2022/07/04 06:22:48;;;;;;;6.28;1.92;;;;;;;31.82;28.08;101941.09;5054132;28;20046;-79
2022/07/04 06:25:20;;;;;;;9.88;2.10;;;;;;;29.02;32.24;101936.53;5052118;28;20047;-79
2022/07/04 06:27:51;;;;;;;17.88;3.28;;;;;;;26.46;36.01;101942.94;5054311;28;20042;-77
2022/07/04 06:30:19;;;;;;;9.63;2.88;;;;;;;24.49;39.96;101941.59;5055697;28;20042;-79
2022/07/04 06:32:47;;;;;;;8.38;2.38;;;;;;;23.14;43.16;101954.47;5052689;28;20501;-77
2022/07/04 06:38:24;;;;;;;14.32;3.13;;;;;;;21.33;48.09;101948.50;5053418;28;20120;-76
2022/07/04 06:40:56;;;;;;;9.57;2.65;;;;;;;20.84;49.57;101943.28;5056119;28;20052;-77
2022/07/04 06:43:25;;;;;;;8.15;2.83;;;;;;;20.49;50.93;101949.63;5055010;28;20065;-77
2022/07/04 06:45:52;;;;;;;8.35;2.90;;;;;;;20.22;52.07;101949.31;5055567;28;20037;-77
2022/07/04 06:48:21;;;;;;;9.02;3.42;;;;;;;19.92;52.48;101950.88;5053517;28;20830;-77
2022/07/04 06:50:48;;;;;;;7.60;2.72;;;;;;;19.69;53.33;101955.56;5053904;28;20115;-78
2022/07/04 06:53:15;;;;;;;19.45;3.47;;;;;;;19.45;53.29;101951.47;5049735;28;20034;-77
2022/07/04 06:55:43;;;;;;;8.07;2.90;;;;;;;19.32;53.99;101957.44;5056735;28;20124;-77
2022/07/04 06:58:12;;;;;;;22.60;4.13;;;;;;;19.20;54.67;101955.38;5056898;28;20041;-78
2022/07/04 07:00:41;;;;;;;20.20;3.53;;;;;;;19.17;54.83;101960.84;5055249;28;20137;-78
2022/07/04 07:03:10;;;;;;;11.93;3.42;;;;;;;19.16;55.45;101953.78;5055404;28;20539;-78
2022/07/04 07:05:44;;;;;;;9.43;2.70;;;;;;;19.15;55.42;101960.06;5038267;28;20049;-78
2022/07/04 07:08:30;;;;;;;7.45;2.80;;;;;;;19.23;55.62;101963.22;5037680;28;20054;-78
2022/07/04 07:11:12;;;;;;;13.73;3.00;;;;;;;19.36;55.31;101963.50;5037878;28;20042;-77
2022/07/04 07:13:49;;;;;;;25.80;3.80;;;;;;;19.65;55.38;101958.50;5037766;28;20185;-77
2022/07/04 07:16:19;;;;;;;14.77;3.05;;;;;;;20.00;54.68;101959.38;5038139;28;20073;-78
2022/07/04 07:18:48;;;;;;;24.50;3.28;;;;;;;20.27;54.16;101948.13;5044039;28;20036;-77
2022/07/04 07:21:16;;;;;;;8.68;2.42;;;;;;;20.37;52.84;101942.25;5055779;28;20068;-78
2022/07/04 07:23:43;;;;;;;9.40;2.85;;;;;;;20.27;52.99;101944.59;5054532;28;20124;-78
2022/07/04 07:26:12;;;;;;;31.98;3.95;;;;;;;20.15;53.09;101938.94;5049488;28;20041;-80
2022/07/04 07:28:40;;;;;;;32.13;3.65;;;;;;;20.08;53.75;101940.22;5062199;28;20076;-78
2022/07/04 07:31:08;;;;;;;18.60;3.05;;;;;;;20.06;53.92;101942.13;5062591;28;20045;-80
2022/07/04 07:33:35;;;;;;;28.38;3.53;;;;;;;20.06;53.98;101943.91;5059835;28;20097;-77
2022/07/04 07:36:28;;;;;;;11.13;2.40;;;;;;;20.08;53.64;101936.69;5043948;28;20045;-77
2022/07/04 07:38:55;;;;;;;18.77;2.60;;;;;;;20.17;53.85;101937.06;5060621;28;20496;-77
2022/07/04 07:41:23;;;;;;;13.52;2.67;;;;;;;20.28;53.72;101938.28;5061576;28;20053;-78
2022/07/04 07:43:51;;;;;;;12.18;2.72;;;;;;;20.38;53.26;101934.16;5057917;28;20845;-80
2022/07/04 07:46:18;;;;;;;6.70;2.20;;;;;;;20.47;52.81;101936.34;5044339;28;20110;-80
2022/07/04 07:48:45;;;;;;;10.95;2.20;;;;;;;20.52;52.88;101933.41;5044369;28;20125;-78
2022/07/04 07:51:14;;;;;;;6.32;1.70;;;;;;;20.57;53.04;101935.84;5072638;28;20144;-78
2022/07/04 07:53:43;;;;;;;10.20;1.95;;;;;;;20.67;52.23;101937.06;5059558;28;20076;-79
2022/07/04 07:56:32;;;;;;;12.20;1.98;;;;;;;20.72;52.24;101939.47;5056297;28;20924;-81
2022/07/04 07:58:59;;;;;;;16.05;2.47;;;;;;;20.76;52.46;101938.34;5058706;28;20773;-80
2022/07/04 08:01:26;;;;;;;8.07;2.40;;;;;;;20.80;52.58;101934.56;5057959;28;20792;-80
2022/07/04 08:06:41;;;;;;;11.50;1.90;;;;;;;20.82;52.79;101929.13;5037626;28;20056;-79
2022/07/04 08:09:29;;;;;;;13.25;2.10;;;;;;;20.84;52.63;101924.53;5057744;28;20061;-79
2022/07/04 08:11:57;;;;;;;5.60;2.08;;;;;;;20.86;52.83;101931.53;5061250;28;20092;-78
2022/07/04 08:14:24;;;;;;;3.90;1.40;;;;;;;20.81;52.86;101917.53;5059763;28;20069;-79
2022/07/04 08:16:52;;;;;;;4.75;1.60;;;;;;;20.74;52.83;101914.34;5060887;28;20042;-78
2022/07/04 08:19:24;;;;;;;10.73;2.00;;;;;;;20.73;52.99;101915.25;5050316;28;20073;-78
2022/07/04 08:21:53;;;;;;;17.50;2.15;;;;;;;20.74;53.27;101918.84;5042451;28;20120;-79
2022/07/04 08:24:40;;;;;;;17.55;2.47;;;;;;;20.84;53.23;101916.50;5035476;28;20044;-79
2022/07/04 08:27:07;;;;;;;15.77;2.25;;;;;;;20.90;52.95;101925.06;5049937;28;20054;-77
2022/07/04 08:29:35;;;;;;;8.73;2.17;;;;;;;20.98;52.96;101921.06;5046072;28;20053;-78
2022/07/04 08:32:03;;;;;;;10.00;1.80;;;;;;;21.09;53.03;101929.34;5037097;28;20080;-77
2022/07/04 08:34:30;;;;;;;17.25;2.30;;;;;;;21.18;52.22;101920.78;5052672;28;20038;-77
2022/07/04 08:36:57;;;;;;;13.35;2.38;;;;;;;21.24;52.26;101922.25;5053819;28;20072;-78
2022/07/04 08:39:25;;;;;;;51.72;4.72;;;;;;;21.33;52.02;101934.25;5054249;28;20584;-79
2022/07/04 08:41:59;;;;;;;8.93;1.73;;;;;;;21.41;51.84;101931.97;5053951;28;20048;-79
2022/07/04 08:44:27;;;;;;;23.50;2.30;;;;;;;21.59;51.71;101930.06;5053196;28;20061;-78
2022/07/04 08:46:54;;;;;;;18.40;2.53;;;;;;;21.77;51.04;101933.47;5050249;28;20536;-78
2022/07/04 08:49:30;;;;;;;24.60;2.30;;;;;;;21.88;50.77;101935.47;5053078;28;20483;-78
2022/07/04 08:52:05;;;;;;;9.63;1.27;;;;;;;22.09;49.80;101938.66;5053687;28;20049;-77
2022/07/04 09:00:08;;;;;;;9.85;1.92;;;;;;;22.44;48.56;101937.44;5047479;28;20524;-78
2022/07/04 09:02:37;;;;;;;19.13;2.40;;;;;;;22.41;48.27;101930.44;5046679;28;20041;-80
2022/07/04 09:05:06;;;;;;;15.13;2.22;;;;;;;22.47;48.86;101939.94;5051470;28;20041;-78
2022/07/04 09:07:35;;;;;;;40.80;4.05;;;;;;;22.56;48.86;101943.88;5053378;28;20060;-79
2022/07/04 09:10:03;;;;;;;16.70;2.50;;;;;;;22.53;49.34;101952.09;5052196;28;20505;-80
2022/07/04 09:12:30;;;;;;;22.00;3.00;;;;;;;22.70;49.32;101946.50;5052838;28;20139;-79
2022/07/04 09:15:18;;;;;;;30.55;3.03;;;;;;;22.83;49.03;101937.66;5064731;28;20046;-79
2022/07/04 09:17:47;;;;;;;24.60;2.65;;;;;;;22.80;48.50;101944.09;5045649;28;20050;-79
2022/07/04 09:20:21;;;;;;;7.63;2.05;;;;;;;22.67;46.92;101932.41;5050786;28;20038;-79
2022/07/04 09:22:51;;;;;;;9.05;1.75;;;;;;;22.70;48.39;101938.44;5039205;28;20133;-80
2022/07/04 09:25:20;;;;;;;9.43;2.40;;;;;;;22.65;48.06;101938.75;5039521;28;20038;-79
2022/07/04 09:27:50;;;;;;;3.42;1.90;;;;;;;22.43;47.21;101931.19;5051863;28;20053;-80
2022/07/04 09:30:24;;;;;;;7.40;2.00;;;;;;;22.30;48.00;101936.47;5050044;28;20064;-81
2022/07/04 09:32:59;;;;;;;;;;;;;;;22.34;48.30;101931.75;5048281;28;20088;-79
2022/07/04 09:35:31;;;;;;;5.10;1.67;;;;;;;22.49;48.07;101935.31;5052803;28;19929;-81
2022/07/04 09:38:04;;;;;;;6.05;1.90;;;;;;;22.68;47.32;101942.19;5052947;28;20030;-79
2022/07/04 09:41:24;;;;;;;7.38;2.08;;;;;;;22.81;47.11;101937.75;5052878;28;20050;-75
2022/07/04 09:43:22;;;;;;;4.65;1.77;;;;;;;23.00;47.79;101936.56;5042999;28;20065;-79
2022/07/04 09:45:57;;;;;;;11.27;2.25;;;;;;;23.22;46.33;101928.81;5042507;28;20125;-79
2022/07/04 09:48:25;;;;;;;7.47;2.10;;;;;;;23.51;46.29;101934.06;5051139;28;20758;-79
2022/07/04 09:50:52;;;;;;;6.00;2.33;;;;;;;23.68;44.42;101935.59;5054733;28;20084;-77
2022/07/04 09:53:27;;;;;;;13.18;2.33;;;;;;;23.71;45.16;101935.34;5053330;28;20128;-78
2022/07/04 09:55:54;;;;;;;10.82;1.92;;;;;;;23.65;45.86;101930.41;5050206;28;20049;-77
2022/07/04 09:58:21;;;;;;;6.95;2.08;;;;;;;23.77;46.26;101925.16;5050780;28;20156;-77
2022/07/04 10:00:49;;;;;;;11.30;2.20;;;;;;;23.97;44.87;101935.44;5045106;28;20048;-78
2022/07/04 10:03:32;;;;;;;8.75;1.83;;;;;;;23.91;45.07;101938.50;5033879;28;20052;-79
2022/07/04 10:06:06;;;;;;;15.20;2.42;;;;;;;23.85;44.37;101934.44;5033017;28;20429;-78
2022/07/04 10:08:34;;;;;;;8.20;1.40;;;;;;;23.81;43.04;101922.13;5036141;28;20144;-78
2022/07/04 10:11:04;;;;;;;26.05;2.50;;;;;;;23.93;44.09;101920.41;5037228;28;20045;-79
2022/07/04 10:13:36;;;;;;;;;;;;;;;23.96;43.84;101924.78;5044804;28;20088;-76
2022/07/04 10:16:10;;;;;;;3.13;1.38;;;;;;;23.83;44.14;101916.63;5049647;28;19925;-78
2022/07/04 10:18:39;;;;;;;13.85;1.90;;;;;;;23.99;43.84;101922.72;5051374;28;20049;-77
2022/07/04 10:21:15;;;;;;;3.63;1.30;;;;;;;23.88;42.59;101917.19;5053486;28;20096;-77
2022/07/04 10:23:45;;;;;;;6.80;1.33;;;;;;;24.02;42.78;101913.56;5056654;28;20041;-78
2022/07/04 10:26:13;;;;;;;9.13;1.67;;;;;;;23.88;42.70;101915.34;5040095;28;20041;-79
2022/07/04 10:28:42;;;;;;;16.73;1.92;;;;;;;24.09;42.80;101911.28;5054266;28;20041;-80
2022/07/04 10:31:17;;;;;;;7.30;1.40;;;;;;;24.44;42.88;101910.56;5054658;28;20135;-79
2022/07/04 10:33:46;;;;;;;3.38;1.42;;;;;;;24.60;42.02;101900.41;5040895;28;20069;-80
2022/07/04 10:36:20;;;;;;;8.60;1.60;;;;;;;24.79;41.27;101902.63;5057581;28;20053;-79
2022/07/04 10:39:00;;;;;;;14.02;1.98;;;;;;;25.03;41.71;101901.78;5054653;28;20045;-80
2022/07/04 10:41:59;;;;;;;6.35;1.58;;;;;;;25.26;40.20;101900.03;5049244;28;20041;-79
2022/07/04 10:44:35;;;;;;;8.60;1.67;;;;;;;25.39;39.84;101902.63;5053056;28;20576;-79
2022/07/04 10:47:04;;;;;;;7.68;1.90;;;;;;;25.42;38.77;101891.63;5051685;28;20030;-79
2022/07/04 10:49:31;;;;;;;7.70;1.67;;;;;;;25.43;39.71;101896.06;5051532;28;20037;-78
2022/07/04 10:52:13;;;;;;;13.02;1.80;;;;;;;25.66;39.11;101893.41;5042053;28;20049;-81
2022/07/04 10:54:44;;;;;;;10.02;2.00;;;;;;;25.73;38.72;101891.09;5033453;28;20068;-79
2022/07/04 10:57:20;;;;;;;5.75;1.70;;;;;;;25.74;38.31;101888.28;5050253;28;20512;-80
2022/07/04 10:59:53;;;;;;;24.63;2.58;;;;;;;25.62;39.13;101891.94;5041678;28;20044;-81
2022/07/04 11:02:31;;;;;;;4.45;1.38;;;;;;;25.54;38.50;101889.81;5035137;28;20050;-81
2022/07/04 11:05:03;;;;;;;11.68;2.05;;;;;;;25.32;38.72;101878.97;5043042;28;20041;-80
2022/07/04 11:07:30;;;;;;;8.85;1.60;;;;;;;25.32;38.98;101882.50;5052734;28;20061;-81
2022/07/04 11:10:20;;;;;;;15.82;1.60;;;;;;;25.20;39.13;101883.44;5044091;28;20037;-81
2022/07/04 11:12:59;;;;;;;5.88;1.85;;;;;;;25.08;39.34;101878.00;5047347;28;20121;-79
2022/07/04 11:15:32;;;;;;;11.48;2.42;;;;;;;24.89;39.82;101880.38;5052481;28;20037;-77
2022/07/04 11:18:08;;;;;;;10.50;1.80;;;;;;;24.69;39.64;101881.88;5061477;28;20050;-79
2022/07/04 11:20:41;;;;;;;13.57;1.83;;;;;;;24.51;40.48;101876.84;5055276;28;20033;-80
2022/07/04 11:23:11;;;;;;;21.05;2.75;;;;;;;24.46;41.60;101877.19;5052986;28;20132;-79
2022/07/04 11:25:44;;;;;;;11.38;1.67;;;;;;;24.51;41.60;101882.22;5052767;28;20057;-81
2022/07/04 11:28:25;;;;;;;12.13;2.08;;;;;;;24.61;41.66;101868.91;5039129;28;20081;-81
2022/07/04 11:31:11;;;;;;;8.75;1.95;;;;;;;24.45;41.34;101871.88;5054029;28;20119;-79
2022/07/04 11:33:41;;;;;;;8.27;1.98;;;;;;;24.19;41.41;101875.50;5052205;28;20049;-80
2022/07/04 11:36:22;;;;;;;4.68;1.33;;;;;;;23.92;42.26;101875.59;5052822;28;20045;-78
2022/07/04 11:38:53;;;;;;;16.05;1.92;;;;;;;23.79;43.52;101874.75;5052156;28;20041;-81
2022/07/04 11:47:17;;;;;;;17.60;2.15;;;;;;;23.51;42.43;101861.41;5056574;28;20076;-79
2022/07/04 11:49:49;;;;;;;17.70;2.05;;;;;;;23.39;43.45;101865.81;5055758;28;20507;-82
2022/07/04 11:52:21;;;;;;;11.15;1.95;;;;;;;23.26;44.67;101871.16;5049157;28;20053;-81
2022/07/04 11:55:12;;;;;;;7.32;1.65;;;;;;;23.24;45.45;101875.78;5050622;28;20045;-82
2022/07/04 11:57:46;;;;;;;5.65;1.48;;;;;;;23.59;45.37;101871.63;5057786;28;20088;-81